createdAt,value
2022-09-04T00:09:20.632Z,125.14
2022-09-04T00:24:20.635Z,124.94
2022-09-04T00:39:20.741Z,110.06
2022-09-04T00:54:20.833Z,125.64
2022-09-04T01:09:20.705Z,135.00
2022-09-04T01:24:20.654Z,135.00
2022-09-04T01:39:20.916Z,135.00
2022-09-04T01:54:20.962Z,135.00
2022-09-04T02:09:20.806Z,135.00
2022-09-04T02:24:21.067Z,135.00
2022-09-04T02:39:21.004Z,133.93
2022-09-04T02:54:20.996Z,134.90
2022-09-04T03:09:21.132Z,146.12
2022-09-04T03:24:21.096Z,167.85
2022-09-04T03:39:21.423Z,153.61
2022-09-04T03:54:21.169Z,148.09
2022-09-04T04:09:21.186Z,134.96
2022-09-04T04:24:21.201Z,218.02
2022-09-04T04:39:21.280Z,186.20
2022-09-04T04:54:21.219Z,135.00
2022-09-04T05:09:21.293Z,154.36
2022-09-04T05:24:21.326Z,135.00
2022-09-04T05:39:21.464Z,172.45
2022-09-04T05:54:21.541Z,154.92
2022-09-04T06:09:21.428Z,140.54
2022-09-04T06:24:21.624Z,175.38
2022-09-04T06:39:21.806Z,178.20
2022-09-04T06:54:21.531Z,163.18
2022-09-04T07:09:21.854Z,158.45
2022-09-04T07:24:21.701Z,168.38
2022-09-04T07:39:21.721Z,224.78
2022-09-04T07:54:22.700Z,202.68
2022-09-04T08:09:21.725Z,256.94
2022-09-04T08:24:21.771Z,239.41
2022-09-04T08:39:21.997Z,233.12
2022-09-04T08:54:21.854Z,265.66
2022-09-04T09:09:22.106Z,239.22
2022-09-04T09:24:22.359Z,224.83
2022-09-04T09:39:21.977Z,221.15
2022-09-04T09:54:21.993Z,191.47
2022-09-04T10:09:22.010Z,265.07
2022-09-04T10:24:22.054Z,235.74
2022-09-04T10:39:22.248Z,226.15
2022-09-04T10:54:22.167Z,228.10
2022-09-04T11:09:22.130Z,252.44
2022-09-04T11:24:22.356Z,223.40
2022-09-04T11:39:22.319Z,246.29
2022-09-04T11:54:22.394Z,262.24
2022-09-04T12:09:22.457Z,260.33
2022-09-04T12:24:22.454Z,231.41
2022-09-04T12:39:22.730Z,262.65
2022-09-04T12:54:22.537Z,269.69
2022-09-04T13:09:22.587Z,272.40
2022-09-04T13:24:23.013Z,281.67
2022-09-04T13:39:22.787Z,278.88
2022-09-04T13:54:22.708Z,276.78
2022-09-04T14:09:22.730Z,267.55
2022-09-04T14:24:22.758Z,240.90
2022-09-04T14:39:22.770Z,188.45
2022-09-04T14:54:22.851Z,21.28
2022-09-04T15:09:22.766Z,238.36
2022-09-04T15:24:26.336Z,258.29
2022-09-04T15:39:23.033Z,132.10
2022-09-04T15:54:22.950Z,143.87
2022-09-04T16:09:22.934Z,213.41
2022-09-04T16:24:23.288Z,207.13
2022-09-04T16:39:23.145Z,223.69
2022-09-04T16:54:28.766Z,237.79
2022-09-04T17:09:23.180Z,158.77
2022-09-04T17:28:55.422Z,147.99
2022-09-04T17:41:31.065Z,172.97
2022-09-04T17:54:26.561Z,152.00
2022-09-04T18:09:26.837Z,149.53
2022-09-04T18:24:23.422Z,130.27
2022-09-04T18:39:23.460Z,134.22
2022-09-04T18:54:23.416Z,133.80
2022-09-04T19:09:23.418Z,135.00
2022-09-04T19:24:23.495Z,135.00
2022-09-04T19:46:19.715Z,133.79
2022-09-04T19:54:23.495Z,148.15
2022-09-04T20:09:23.664Z,135.00
2022-09-04T20:24:23.605Z,138.42
2022-09-04T20:39:23.678Z,180.00
2022-09-04T20:54:28.724Z,164.04
2022-09-04T21:09:23.748Z,135.00
2022-09-04T21:24:23.754Z,135.00
2022-09-04T21:39:23.807Z,135.00
2022-09-04T21:54:37.607Z,135.00
2022-09-04T22:13:32.438Z,135.00
2022-09-04T22:24:24.109Z,135.00
2022-09-04T22:39:27.479Z,135.00
2022-09-04T22:54:24.084Z,134.22
2022-09-04T23:13:59.442Z,135.00
2022-09-04T23:26:47.729Z,133.02
2022-09-04T23:39:24.201Z,135.00
2022-09-04T23:54:25.354Z,135.00
